METAR Data
IDs: Format: Raw Decoded Include TAF

Data at: 0232 UTC 25 Jan 2020

PADL 250156Z 36012KT 10SM CLR M12/M18 A2977 RMK AO2 SLP087 T11221183
PADL 250056Z 36013KT 10SM CLR M11/M18 A2977 RMK AO2 SLP085 T11111183
PADL 242356Z 35013KT 10SM CLR M11/M18 A2977 RMK AO2 SLP086 60000 T11111183 11111 21189 58018
PADL 242256Z 34010KT 10SM CLR M12/M18 A2979 RMK AO2 SLP092 T11221183
PADL 242156Z 33006KT 10SM CLR M13/M19 A2981 RMK AO2 SLP099 T11331189
PADL 242056Z 36007KT 10SM CLR M14/M19 A2983 RMK AO2 SLP104 60000 T11441194 50003
PADL 241956Z 36008KT 10SM CLR M15/M20 A2983 RMK AO2 SLP105 T11501200
PADL 241856Z 35007KT 10SM CLR M16/M21 A2982 RMK AO2 SNB11E25 SLP104 P0000 T11611206
PADL 241756Z 33005KT 10SM CLR M18/M21 A2982 RMK AO2 SLP101 T11831211 11167 21206 55008
PADL 241656Z 36003KT 10SM CLR M19/M22 A2981 RMK AO2 SLP099 T11941217
PADL 241556Z AUTO 32004KT 10SM CLR M18/M20 A2983 RMK AO2 SLP105 T11781200 FZRANO
PADL 241456Z AUTO 33004KT 10SM CLR M17/M20 A2984 RMK AO2 SLP109 T11721200 56015 FZRANO
PADL 241356Z AUTO 31003KT 10SM CLR M17/M20 A2985 RMK AO2 SLP113 T11721200 FZRANO
PADL 241256Z AUTO 31004KT 10SM CLR M18/M20 A2987 RMK AO2 SLP119 T11781200 FZRANO
PADL 241156Z AUTO 30003KT 10SM CLR M19/M21 A2988 RMK AO2 SLP124 T11941211 11189 21217 58012 FZRANO
PADL 241056Z AUTO 00000KT 10SM CLR M19/M22 A2990 RMK AO2 SLP130 T11941217 FZRANO
PADL 240956Z AUTO 00000KT 10SM CLR M20/M23 A2991 RMK AO2 SLP133 T12001228 FZRANO
PADL 240856Z AUTO 00000KT 10SM CLR M22/M24 A2992 RMK AO2 SLP136 T12171239 411221217 58010 FZRANO
PADL 240756Z AUTO 00000KT 10SM CLR M21/M23 A2993 RMK AO2 SLP139 T12061228 FZRANO
PADL 240656Z AUTO 00000KT 10SM CLR M20/M22 A2994 RMK AO2 SLP144 T12001222 FZRANO
PADL 240556Z 00000KT 10SM CLR M19/M22 A2995 RMK AO2 SLP147 60000 T11941222 11122 21194 58005
PADL 240456Z 00000KT 10SM CLR M18/M21 A2996 RMK AO2 SLP151 T11831206
PADL 240356Z 34009KT 10SM CLR M16/M19 A2996 RMK AO2 SNB11E13 SLP151 P0000 T11611189
PADL 240256Z 29004KT 10SM CLR M17/M19 A2996 RMK AO2 SLP151 60000 T11671189 55000
PADL 240156Z 00000KT 10SM CLR M14/M18 A2995 RMK AO2 SNB09E11 SLP147 P0000 T11441183
PADL 240056Z 33006KT 10SM CLR M13/M17 A2995 RMK AO2 SLP147 T11281172
PADL 232356Z 32003KT 10SM CLR M13/M17 A2996 RMK AO2 SNB20E34 SLP151 P0000 60000 T11281167 11122 21217 51003
PADL 232256Z 34007KT 10SM CLR M13/M17 A2996 RMK AO2 SLP149 T11331172
PADL 232156Z 34009KT 10SM CLR M14/M18 A2996 RMK AO2 SLP151 T11441183
PADL 232056Z 36006KT 10SM CLR M15/M18 A2995 RMK AO2 SLP147 60000 T11501178 51018
PADL 231956Z 35010KT 10SM CLR M17/M19 A2994 RMK AO2 SLP145 T11671194
PADL 231856Z 36009KT 10SM CLR M17/M19 A2993 RMK AO2 SNB26E28 SLP141 P0000 T11721189
PADL 231756Z 00000KT 10SM CLR M22/M24 A2990 RMK AO2 SLP130 60000 T12171239 11144 21217 53002
PADL 231656Z 00000KT 10SM CLR M19/M21 A2989 RMK AO2 SLP128 T11891211
PADL 231556Z AUTO 00000KT 10SM CLR M17/M19 A2989 RMK AO2 SLP127 T11721194 FZRANO
PADL 231456Z AUTO 35006KT 10SM CLR M16/M18 A2989 RMK AO2 SNE21 SLP127 P0000 60000 T11611178 53007 FZRANO